createdAt,value
2023-05-21T00:01:50.086Z,69.46
2023-05-21T00:04:17.855Z,69.65
2023-05-21T00:06:44.838Z,69.83
2023-05-21T00:09:13.075Z,70.10
2023-05-21T00:11:39.858Z,70.24
2023-05-21T00:14:06.598Z,70.46
2023-05-21T00:16:33.387Z,70.65
2023-05-21T00:19:00.226Z,70.81
2023-05-21T00:21:27.077Z,70.95
2023-05-21T00:23:57.063Z,70.99
2023-05-21T00:26:24.336Z,71.04
2023-05-21T00:28:52.837Z,71.21
2023-05-21T00:31:19.752Z,71.35
2023-05-21T00:33:46.612Z,71.47
2023-05-21T00:36:14.647Z,71.68
2023-05-21T00:38:45.798Z,72.02
2023-05-21T00:41:13.151Z,72.44
2023-05-21T00:43:42.331Z,72.89
2023-05-21T00:46:16.809Z,73.12
2023-05-21T00:48:47.357Z,73.22
2023-05-21T00:51:14.547Z,73.63
2023-05-21T00:53:41.382Z,73.93
2023-05-21T00:56:08.209Z,74.32
2023-05-21T00:58:35.032Z,74.80
2023-05-21T01:01:03.854Z,75.55
2023-05-21T01:03:31.067Z,76.18
2023-05-21T01:06:00.293Z,77.08
2023-05-21T01:08:28.925Z,77.69
2023-05-21T01:10:55.807Z,78.19
2023-05-21T01:13:23.293Z,78.46
2023-05-21T01:15:50.597Z,78.79
2023-05-21T01:18:20.153Z,78.92
2023-05-21T01:20:50.309Z,79.41
2023-05-21T01:23:17.491Z,79.95
2023-05-21T01:25:44.928Z,80.39
2023-05-21T01:28:12.529Z,80.97
2023-05-21T01:30:42.379Z,81.66
2023-05-21T01:33:24.567Z,82.01
2023-05-21T01:35:54.647Z,82.18
2023-05-21T01:38:43.853Z,82.45
2023-05-21T01:41:11.685Z,82.93
2023-05-21T01:43:39.798Z,82.93
2023-05-21T01:46:08.255Z,82.92
2023-05-21T01:48:35.963Z,82.74
2023-05-21T01:51:04.505Z,83.08
2023-05-21T01:53:31.417Z,83.21
2023-05-21T01:55:59.432Z,83.88
2023-05-21T01:58:26.715Z,84.98
2023-05-21T02:00:53.506Z,85.97
2023-05-21T02:03:20.815Z,87.14
2023-05-21T02:05:47.842Z,88.17
2023-05-21T02:08:19.772Z,89.44
2023-05-21T02:10:46.583Z,90.39
2023-05-21T02:13:13.428Z,91.28
2023-05-21T02:15:40.732Z,91.99
2023-05-21T02:18:08.736Z,92.45
2023-05-21T02:20:36.771Z,92.78
2023-05-21T02:23:03.555Z,93.23
2023-05-21T02:25:30.642Z,93.91
2023-05-21T02:27:57.437Z,94.39
2023-05-21T02:30:24.224Z,95.01
2023-05-21T02:32:51.096Z,95.57
2023-05-21T02:35:17.965Z,95.80
2023-05-21T02:37:45.049Z,95.83
2023-05-21T02:40:12.546Z,95.91
2023-05-21T02:42:40.362Z,95.63
2023-05-21T02:45:09.078Z,95.82
2023-05-21T02:47:36.362Z,95.37
2023-05-21T02:50:03.402Z,95.61
2023-05-21T02:52:32.452Z,95.63
2023-05-21T02:54:59.232Z,95.87
2023-05-21T02:57:26.166Z,95.97
2023-05-21T02:59:53.046Z,95.59
2023-05-21T03:02:20.111Z,95.39
2023-05-21T03:04:47.105Z,95.31
2023-05-21T03:07:14.668Z,95.03
2023-05-21T03:09:42.415Z,94.52
2023-05-21T03:12:09.668Z,94.12
2023-05-21T03:14:38.187Z,93.89
2023-05-21T03:17:08.587Z,93.76
2023-05-21T03:19:36.521Z,93.77
2023-05-21T03:22:04.716Z,94.41
2023-05-21T03:24:33.639Z,95.40
2023-05-21T03:27:06.553Z,96.25
2023-05-21T03:29:33.914Z,96.77
2023-05-21T03:32:01.934Z,97.29
2023-05-21T03:34:30.308Z,97.21
2023-05-21T03:36:57.221Z,97.43
2023-05-21T03:39:24.439Z,97.86
2023-05-21T03:41:51.592Z,98.01
2023-05-21T03:44:32.648Z,97.80
2023-05-21T03:47:18.520Z,98.08
2023-05-21T03:49:45.801Z,98.13
2023-05-21T03:52:12.598Z,97.83
2023-05-21T03:54:39.713Z,97.53
2023-05-21T03:57:07.753Z,98.06
2023-05-21T03:59:35.071Z,98.16
2023-05-21T04:02:02.233Z,98.45
2023-05-21T04:04:29.698Z,98.60
2023-05-21T04:06:56.814Z,98.79
2023-05-21T04:09:23.616Z,99.83
2023-05-21T04:11:52.724Z,100.00
2023-05-21T04:14:19.721Z,100.00
2023-05-21T04:16:49.259Z,99.95
2023-05-21T04:19:16.245Z,99.37
2023-05-21T04:21:45.064Z,98.97
2023-05-21T04:24:12.485Z,96.47
2023-05-21T04:26:50.052Z,93.29
2023-05-21T04:29:18.266Z,91.43
2023-05-21T04:31:45.409Z,90.17
2023-05-21T04:34:13.437Z,88.94
2023-05-21T04:36:40.261Z,87.99
2023-05-21T04:39:08.115Z,87.29
2023-05-21T04:41:34.946Z,87.21
2023-05-21T04:44:01.739Z,87.26
2023-05-21T04:46:31.102Z,86.87
2023-05-21T04:48:58.334Z,85.94
2023-05-21T04:51:26.785Z,85.52
2023-05-21T04:53:54.365Z,85.15
2023-05-21T04:56:22.439Z,83.64
2023-05-21T04:58:49.554Z,81.44
2023-05-21T05:01:16.544Z,80.34
2023-05-21T05:03:43.489Z,79.76
2023-05-21T05:06:10.528Z,79.53
2023-05-21T05:08:37.428Z,79.31
2023-05-21T05:11:04.581Z,79.07
2023-05-21T05:13:31.629Z,78.65
2023-05-21T05:15:58.551Z,77.73
2023-05-21T05:18:26.781Z,77.02
2023-05-21T05:20:54.716Z,76.48
2023-05-21T05:23:21.649Z,75.70
2023-05-21T05:25:48.537Z,74.93
2023-05-21T05:28:15.487Z,74.33
2023-05-21T05:30:42.411Z,73.70
2023-05-21T05:33:16.809Z,73.13
2023-05-21T05:35:43.671Z,72.74
2023-05-21T05:38:10.601Z,71.67
2023-05-21T05:40:37.702Z,70.95
2023-05-21T05:43:04.969Z,70.67
2023-05-21T05:45:32.472Z,70.35
2023-05-21T05:47:59.852Z,69.81
2023-05-21T05:50:27.422Z,69.36
2023-05-21T05:52:54.419Z,68.90
2023-05-21T05:55:22.379Z,68.86
2023-05-21T05:57:49.393Z,68.76
2023-05-21T06:00:17.692Z,68.49
2023-05-21T06:02:46.523Z,67.75
2023-05-21T06:05:13.420Z,67.15
2023-05-21T06:07:41.107Z,66.46
2023-05-21T06:10:08.885Z,65.71
2023-05-21T06:12:35.712Z,65.67
2023-05-21T06:15:02.577Z,65.78
2023-05-21T06:17:29.879Z,65.73
2023-05-21T06:19:56.709Z,65.35
2023-05-21T06:22:25.695Z,65.24
2023-05-21T06:24:52.891Z,65.00
2023-05-21T06:27:21.016Z,64.73
2023-05-21T06:29:48.515Z,64.71
2023-05-21T06:32:15.425Z,64.44
2023-05-21T06:34:42.362Z,64.34
2023-05-21T06:37:09.200Z,64.31
2023-05-21T06:39:36.069Z,64.27
2023-05-21T06:42:03.337Z,64.14
2023-05-21T06:44:59.730Z,63.97
2023-05-21T06:47:30.863Z,63.81
2023-05-21T06:49:59.446Z,63.67
2023-05-21T06:52:29.083Z,63.52
2023-05-21T06:54:56.023Z,63.25
2023-05-21T06:57:23.249Z,63.08
2023-05-21T06:59:50.114Z,63.24
2023-05-21T07:02:17.153Z,63.41
2023-05-21T07:04:44.054Z,63.11
2023-05-21T07:07:11.109Z,63.23
2023-05-21T07:09:38.021Z,63.35
2023-05-21T07:12:05.579Z,63.12
2023-05-21T07:14:32.932Z,62.90
2023-05-21T07:16:59.904Z,62.09
2023-05-21T07:19:26.946Z,61.80
2023-05-21T07:21:53.923Z,61.26
2023-05-21T07:24:21.282Z,61.28
2023-05-21T07:26:48.474Z,61.21
2023-05-21T07:29:16.759Z,61.08
2023-05-21T07:31:43.825Z,61.19
2023-05-21T07:34:11.330Z,60.75
2023-05-21T07:36:39.251Z,60.22
2023-05-21T07:39:06.651Z,60.46
2023-05-21T07:41:33.557Z,60.63
2023-05-21T07:44:01.851Z,60.78
2023-05-21T07:46:28.808Z,60.49
2023-05-21T07:48:56.372Z,59.97
2023-05-21T07:51:23.405Z,59.42
2023-05-21T07:53:50.173Z,59.26
2023-05-21T07:56:17.846Z,59.29
2023-05-21T07:58:46.042Z,59.30
2023-05-21T08:01:13.325Z,59.05
2023-05-21T08:03:40.755Z,58.57
2023-05-21T08:06:07.747Z,58.56
2023-05-21T08:08:34.700Z,58.44
2023-05-21T08:11:02.017Z,58.54
2023-05-21T08:13:29.692Z,58.44
2023-05-21T08:15:56.763Z,58.10
2023-05-21T08:18:24.036Z,57.69
2023-05-21T08:20:51.855Z,57.47
2023-05-21T08:23:19.622Z,56.93
2023-05-21T08:25:49.781Z,55.91
2023-05-21T08:28:16.893Z,55.39
2023-05-21T08:30:43.743Z,54.64
2023-05-21T08:33:11.765Z,54.39
2023-05-21T08:35:39.162Z,54.35
2023-05-21T08:38:17.007Z,53.32
2023-05-21T08:41:04.603Z,52.24
2023-05-21T08:43:31.466Z,52.07
2023-05-21T08:46:01.267Z,52.20
2023-05-21T08:48:31.377Z,52.27
2023-05-21T08:50:59.227Z,52.22
2023-05-21T08:53:30.423Z,52.27
2023-05-21T08:55:57.720Z,51.93
2023-05-21T08:58:30.297Z,51.46
2023-05-21T09:00:57.922Z,51.23
2023-05-21T09:03:26.138Z,51.21
2023-05-21T09:05:53.228Z,50.98
2023-05-21T09:08:24.382Z,51.05
2023-05-21T09:10:56.692Z,50.15
2023-05-21T09:13:26.936Z,49.27
2023-05-21T09:15:55.021Z,48.74
2023-05-21T09:18:22.507Z,48.57
2023-05-21T09:20:59.536Z,48.25
2023-05-21T09:23:27.123Z,47.75
2023-05-21T09:25:54.392Z,47.62
2023-05-21T09:28:25.822Z,47.58
2023-05-21T09:30:54.383Z,47.00
2023-05-21T09:33:29.671Z,46.96
2023-05-21T09:35:56.815Z,46.89
2023-05-21T09:38:25.156Z,46.36
2023-05-21T09:40:54.356Z,46.00
2023-05-21T09:43:21.590Z,45.85
2023-05-21T09:45:52.739Z,45.26
2023-05-21T09:48:42.595Z,44.33
2023-05-21T09:51:16.185Z,42.76
2023-05-21T09:53:58.737Z,41.96
2023-05-21T09:56:27.329Z,41.78
2023-05-21T09:58:55.216Z,41.76
2023-05-21T10:01:22.312Z,40.66
2023-05-21T10:03:56.017Z,40.42
2023-05-21T10:06:27.565Z,40.70
2023-05-21T10:08:59.173Z,40.10
2023-05-21T10:11:27.367Z,38.91
2023-05-21T10:14:08.180Z,38.29
2023-05-21T10:16:36.469Z,37.81
2023-05-21T10:19:04.908Z,37.41
2023-05-21T10:21:31.911Z,37.33
2023-05-21T10:23:58.957Z,38.03
2023-05-21T10:26:26.464Z,37.66
2023-05-21T10:28:53.678Z,37.23
2023-05-21T10:31:20.719Z,36.55
2023-05-21T10:33:47.539Z,36.57
2023-05-21T10:36:19.090Z,36.77
2023-05-21T10:38:45.914Z,36.80
2023-05-21T10:41:12.904Z,35.83
2023-05-21T10:44:18.461Z,35.93
2023-05-21T10:46:54.553Z,35.67
2023-05-21T10:49:39.224Z,35.38
2023-05-21T10:52:31.869Z,35.20
2023-05-21T10:55:23.539Z,35.10
2023-05-21T10:58:21.832Z,35.01
2023-05-21T11:00:48.895Z,35.30
2023-05-21T11:03:15.905Z,35.05
2023-05-21T11:05:54.188Z,35.11
2023-05-21T11:08:25.563Z,34.71
2023-05-21T11:10:58.010Z,34.15
2023-05-21T11:13:32.740Z,34.71
2023-05-21T11:15:59.865Z,35.07
2023-05-21T11:18:35.843Z,35.04
2023-05-21T11:21:18.182Z,35.05
2023-05-21T11:23:51.557Z,34.57
2023-05-21T11:26:19.211Z,34.54
2023-05-21T11:28:46.202Z,34.60
2023-05-21T11:31:30.483Z,34.39
2023-05-21T11:34:16.332Z,34.19
2023-05-21T11:39:48.295Z,35.28
2023-05-21T11:42:31.843Z,35.37
2023-05-21T11:44:59.439Z,35.20
2023-05-21T11:47:26.970Z,35.25
2023-05-21T11:49:53.994Z,35.35
2023-05-21T11:52:20.924Z,35.23
2023-05-21T11:54:55.611Z,34.38
2023-05-21T11:57:23.958Z,34.06
2023-05-21T11:59:53.687Z,33.85
2023-05-21T12:02:21.629Z,33.83
2023-05-21T12:04:49.883Z,33.91
2023-05-21T12:07:17.993Z,33.80
2023-05-21T12:09:49.472Z,33.27
2023-05-21T12:12:21.546Z,32.93
2023-05-21T12:14:50.027Z,33.05
2023-05-21T12:17:20.099Z,32.99
2023-05-21T12:19:47.011Z,32.56
2023-05-21T12:22:15.533Z,32.04
2023-05-21T12:24:43.905Z,31.23
2023-05-21T12:27:13.012Z,30.99
2023-05-21T12:29:42.543Z,30.76
2023-05-21T12:32:12.662Z,30.46
2023-05-21T12:34:47.675Z,30.10
2023-05-21T12:37:25.480Z,29.76
2023-05-21T12:39:54.274Z,29.94
2023-05-21T12:42:34.697Z,30.07
2023-05-21T12:45:06.095Z,30.18
2023-05-21T12:47:33.554Z,30.37
2023-05-21T12:50:04.339Z,30.22
2023-05-21T12:52:31.309Z,30.05
2023-05-21T12:54:58.342Z,29.41
2023-05-21T12:57:41.078Z,28.95
2023-05-21T13:00:10.370Z,28.60
2023-05-21T13:02:44.575Z,28.38
2023-05-21T13:05:17.652Z,28.29
2023-05-21T13:07:46.912Z,28.00
2023-05-21T13:10:16.220Z,28.03
2023-05-21T13:12:44.345Z,28.26
2023-05-21T13:15:11.710Z,28.35
2023-05-21T13:17:38.722Z,28.48
2023-05-21T13:20:12.026Z,28.44
2023-05-21T13:22:43.383Z,28.04
2023-05-21T13:25:11.405Z,27.60
2023-05-21T13:27:39.352Z,27.54
2023-05-21T13:30:07.115Z,27.65
2023-05-21T13:32:34.315Z,27.72
2023-05-21T13:35:01.822Z,27.78
2023-05-21T13:37:28.834Z,27.52
2023-05-21T13:39:55.743Z,27.17
2023-05-21T13:42:22.715Z,26.70
2023-05-21T13:44:49.512Z,26.33
2023-05-21T13:47:16.435Z,26.38
2023-05-21T13:49:43.468Z,26.08
2023-05-21T13:52:10.369Z,25.95
2023-05-21T13:54:37.154Z,25.52
2023-05-21T13:57:04.160Z,25.42
2023-05-21T13:59:33.442Z,25.55
2023-05-21T14:02:01.177Z,25.47
2023-05-21T14:04:28.270Z,25.27
2023-05-21T14:06:55.597Z,24.88
2023-05-21T14:09:23.676Z,24.86
2023-05-21T14:11:50.916Z,24.88
2023-05-21T14:14:19.366Z,24.91
2023-05-21T14:16:47.396Z,24.83
2023-05-21T14:19:14.754Z,24.57
2023-05-21T14:21:41.850Z,24.09
2023-05-21T14:24:08.650Z,23.99
2023-05-21T14:26:37.534Z,23.96
2023-05-21T14:29:04.309Z,23.98
2023-05-21T14:31:31.421Z,23.94
2023-05-21T14:33:58.472Z,24.00
2023-05-21T14:36:26.158Z,24.13
2023-05-21T14:38:53.066Z,23.96
2023-05-21T14:41:19.967Z,23.69
2023-05-21T14:43:47.396Z,23.32
2023-05-21T14:46:14.337Z,22.78
2023-05-21T14:48:41.208Z,22.41
2023-05-21T14:51:08.442Z,21.97
2023-05-21T14:53:35.677Z,21.87
2023-05-21T14:56:02.559Z,21.72
2023-05-21T14:58:29.339Z,21.37
2023-05-21T15:00:56.268Z,21.12
2023-05-21T15:03:23.380Z,20.47
2023-05-21T15:05:50.299Z,20.06
2023-05-21T15:08:17.214Z,19.34
2023-05-21T15:10:44.061Z,18.74
2023-05-21T15:13:11.093Z,18.03
2023-05-21T15:15:38.089Z,17.68
2023-05-21T15:18:05.205Z,17.24
2023-05-21T15:20:32.099Z,16.61
2023-05-21T15:23:15.416Z,15.76
2023-05-21T15:25:44.223Z,15.38
2023-05-21T15:28:12.411Z,15.17
2023-05-21T15:30:39.736Z,14.72
2023-05-21T15:33:06.606Z,14.18
2023-05-21T15:35:35.410Z,13.63
2023-05-21T15:38:02.872Z,13.04
2023-05-21T15:40:29.962Z,12.84
2023-05-21T15:42:57.146Z,12.48
2023-05-21T15:45:24.776Z,12.24
2023-05-21T15:47:51.660Z,11.83
2023-05-21T15:50:18.516Z,11.94
2023-05-21T15:52:45.309Z,12.07
2023-05-21T15:55:14.405Z,12.31
2023-05-21T15:57:41.487Z,12.15
2023-05-21T16:00:09.956Z,11.82
2023-05-21T16:02:37.119Z,11.91
2023-05-21T16:05:05.343Z,11.92
2023-05-21T16:07:32.104Z,11.69
2023-05-21T16:09:58.885Z,11.65
2023-05-21T16:12:26.019Z,11.73
2023-05-21T16:14:53.040Z,11.70
2023-05-21T16:17:20.021Z,12.03
2023-05-21T16:19:47.706Z,12.02
2023-05-21T16:22:14.756Z,12.48
2023-05-21T16:24:41.644Z,12.56
2023-05-21T16:27:08.392Z,12.41
2023-05-21T16:29:35.429Z,12.44
2023-05-21T16:32:02.257Z,12.54
2023-05-21T16:34:29.272Z,12.35
2023-05-21T16:36:56.895Z,12.54
2023-05-21T16:39:23.749Z,12.45
2023-05-21T16:41:50.561Z,12.86
2023-05-21T16:44:17.550Z,12.82
2023-05-21T16:46:44.357Z,12.87
2023-05-21T16:49:11.274Z,12.76
2023-05-21T16:51:38.066Z,12.83
2023-05-21T16:54:05.417Z,12.99
2023-05-21T16:56:32.402Z,13.40
2023-05-21T16:58:59.270Z,13.63
2023-05-21T17:01:26.155Z,13.56
2023-05-21T17:03:53.477Z,13.91
2023-05-21T17:06:20.565Z,14.23
2023-05-21T17:08:47.355Z,14.52
2023-05-21T17:11:14.583Z,14.79
2023-05-21T17:13:41.903Z,15.30
2023-05-21T17:16:08.833Z,15.91
2023-05-21T17:18:35.893Z,16.48
2023-05-21T17:21:02.650Z,16.92
2023-05-21T17:23:29.506Z,17.57
2023-05-21T17:25:56.396Z,18.28
2023-05-21T17:28:23.408Z,18.88
2023-05-21T17:30:50.721Z,19.40
2023-05-21T17:33:17.881Z,19.91
2023-05-21T17:35:44.708Z,20.50
2023-05-21T17:38:11.632Z,21.17
2023-05-21T17:40:38.442Z,21.75
2023-05-21T17:43:07.285Z,22.38
2023-05-21T17:45:34.516Z,22.85
2023-05-21T17:48:01.349Z,23.38
2023-05-21T17:50:28.310Z,23.78
2023-05-21T17:52:55.398Z,24.36
2023-05-21T17:55:22.335Z,24.73
2023-05-21T17:57:49.187Z,25.23
2023-05-21T18:00:16.457Z,25.60
2023-05-21T18:02:43.274Z,25.98
2023-05-21T18:05:10.268Z,26.43
2023-05-21T18:07:37.428Z,26.95
2023-05-21T18:10:04.548Z,27.22
2023-05-21T18:12:31.457Z,27.48
2023-05-21T18:14:58.396Z,27.87
2023-05-21T18:17:25.293Z,28.19
2023-05-21T18:19:52.148Z,28.40
2023-05-21T18:22:18.997Z,28.75
2023-05-21T18:24:46.329Z,28.94
2023-05-21T18:27:13.721Z,29.31
2023-05-21T18:29:40.543Z,29.43
2023-05-21T18:32:07.789Z,29.69
2023-05-21T18:34:34.890Z,29.97
2023-05-21T18:37:01.831Z,30.19
2023-05-21T18:39:28.756Z,30.53
2023-05-21T18:42:11.476Z,30.75
2023-05-21T18:44:39.578Z,31.03
2023-05-21T18:47:07.764Z,31.26
2023-05-21T18:49:36.382Z,31.42
2023-05-21T18:52:04.959Z,31.61
2023-05-21T18:54:31.932Z,31.83
2023-05-21T18:57:00.580Z,32.04
2023-05-21T18:59:28.572Z,32.33
2023-05-21T19:01:55.558Z,32.50
2023-05-21T19:04:22.577Z,32.71
2023-05-21T19:06:49.432Z,32.95
2023-05-21T19:09:16.221Z,33.01
2023-05-21T19:11:43.177Z,33.17
2023-05-21T19:14:10.048Z,33.33
2023-05-21T19:16:37.023Z,33.40
2023-05-21T19:19:04.306Z,33.56
2023-05-21T19:21:31.624Z,33.78
2023-05-21T19:23:58.831Z,33.93
2023-05-21T19:26:25.867Z,34.06
2023-05-21T19:28:56.605Z,34.35
2023-05-21T19:31:23.706Z,34.29
2023-05-21T19:33:51.512Z,34.49
2023-05-21T19:36:18.771Z,34.55
2023-05-21T19:38:48.176Z,34.72
2023-05-21T19:41:18.475Z,34.87
2023-05-21T19:43:46.014Z,35.00
2023-05-21T19:46:15.891Z,35.08
2023-05-21T19:48:45.069Z,35.17
2023-05-21T19:51:12.224Z,35.38
2023-05-21T19:53:39.136Z,35.57
2023-05-21T19:56:06.836Z,35.72
2023-05-21T19:58:33.651Z,35.85
2023-05-21T20:01:00.548Z,35.98
2023-05-21T20:03:28.543Z,36.13
2023-05-21T20:05:55.547Z,36.29
2023-05-21T20:08:22.945Z,36.41
2023-05-21T20:10:52.041Z,36.50
2023-05-21T20:13:19.661Z,36.60
2023-05-21T20:15:48.150Z,36.71
2023-05-21T20:18:15.651Z,36.79
2023-05-21T20:20:43.267Z,36.93
2023-05-21T20:23:10.058Z,37.03
2023-05-21T20:25:36.837Z,37.17
2023-05-21T20:28:05.103Z,37.30
2023-05-21T20:30:33.223Z,37.41
2023-05-21T20:33:03.104Z,37.48
2023-05-21T20:35:30.284Z,37.61
2023-05-21T20:37:57.187Z,37.75
2023-05-21T20:40:24.053Z,37.85
2023-05-21T20:42:53.122Z,37.94
2023-05-21T20:45:21.272Z,38.00
2023-05-21T20:47:50.319Z,38.13
2023-05-21T20:50:25.941Z,38.16
2023-05-21T20:52:52.936Z,38.27
2023-05-21T20:55:20.924Z,38.46
2023-05-21T20:57:47.774Z,38.55
2023-05-21T21:00:16.368Z,38.83
2023-05-21T21:02:43.753Z,38.88
2023-05-21T21:05:11.420Z,39.08
2023-05-21T21:07:38.276Z,39.26
2023-05-21T21:10:05.967Z,39.38
2023-05-21T21:12:32.906Z,39.62
2023-05-21T21:14:59.799Z,39.73
2023-05-21T21:17:26.866Z,39.92
2023-05-21T21:19:53.660Z,40.02
2023-05-21T21:22:21.063Z,40.19
2023-05-21T21:24:48.016Z,40.29
2023-05-21T21:27:15.012Z,40.43
2023-05-21T21:29:42.058Z,40.49
2023-05-21T21:32:08.829Z,40.61
2023-05-21T21:34:35.616Z,40.73
2023-05-21T21:37:02.451Z,40.91
2023-05-21T21:39:29.341Z,41.08
2023-05-21T21:41:56.228Z,41.17
2023-05-21T21:44:23.065Z,41.25
2023-05-21T21:46:50.048Z,41.36
2023-05-21T21:49:17.547Z,41.63
2023-05-21T21:51:44.657Z,41.67
2023-05-21T21:54:11.767Z,41.85
2023-05-21T21:56:38.731Z,41.98
2023-05-21T21:59:05.668Z,42.17
2023-05-21T22:01:32.854Z,42.29
2023-05-21T22:03:59.754Z,42.37
2023-05-21T22:06:27.708Z,42.65
2023-05-21T22:08:54.776Z,42.83
2023-05-21T22:11:22.096Z,42.86
2023-05-21T22:13:49.384Z,43.04
2023-05-21T22:16:16.285Z,43.24
2023-05-21T22:18:43.222Z,43.48
2023-05-21T22:21:10.699Z,43.63
2023-05-21T22:23:38.519Z,43.81
2023-05-21T22:26:06.424Z,43.93
2023-05-21T22:28:33.477Z,44.14
2023-05-21T22:31:00.415Z,44.18
2023-05-21T22:33:27.211Z,44.38
2023-05-21T22:35:54.734Z,44.51
2023-05-21T22:38:22.139Z,44.62
2023-05-21T22:40:48.970Z,44.82
2023-05-21T22:43:16.165Z,44.86
2023-05-21T22:45:44.368Z,45.02
2023-05-21T22:48:11.164Z,45.12
2023-05-21T22:50:38.728Z,45.22
2023-05-21T22:53:06.662Z,45.39
2023-05-21T22:55:33.549Z,45.50
2023-05-21T22:58:00.360Z,45.78
2023-05-21T23:00:27.231Z,45.99
2023-05-21T23:02:54.710Z,46.20
2023-05-21T23:05:22.506Z,46.42
2023-05-21T23:07:49.757Z,46.60
2023-05-21T23:10:16.756Z,46.75
2023-05-21T23:12:43.542Z,46.96
2023-05-21T23:15:11.087Z,47.15
2023-05-21T23:17:38.656Z,47.34
2023-05-21T23:20:07.653Z,47.55
2023-05-21T23:22:35.506Z,47.78
2023-05-21T23:25:02.685Z,47.97
2023-05-21T23:27:29.551Z,48.10
2023-05-21T23:29:56.532Z,48.29
2023-05-21T23:32:23.805Z,48.49
2023-05-21T23:34:50.996Z,48.65
2023-05-21T23:37:18.005Z,48.76
2023-05-21T23:39:48.374Z,48.97
2023-05-21T23:42:16.408Z,49.04
2023-05-21T23:44:43.339Z,49.16
2023-05-21T23:47:10.186Z,49.33
2023-05-21T23:49:36.998Z,49.41
2023-05-21T23:52:05.341Z,49.55
2023-05-21T23:57:26.653Z,49.73
2023-05-21T23:59:53.426Z,49.86
